Weather History for KBBP - February, 2013

Change the Weather History Date:

Wednesday, February 27, 2013

  Actual Average (KFLO) Record (KFLO)
Temperature  
Mean Temperature 52 °F 51 °F  
Max Temperature 60 °F 63 °F 85 °F (1997)
Min Temperature 44 °F 40 °F 16 °F (1963)
Degree Days  
Heating Degree Days 13 14  
Month to date heating degree days 450  
Since 1 July heating degree days 2052  
Cooling Degree Days 0 0  
Month to date cooling degree days 0  
Year to date cooling degree days 2  
Growing Degree Days 2 (Base 50)    
Moisture  
Dew Point 41 °F    
Average Humidity 72    
Maximum Humidity 100    
Minimum Humidity 45    
Precipitation  
Precipitation 0.00 in 0.10 in 1.95 in (1987)
Month to date precipitation 2.81  
Year to date precipitation 6.04  
Sea Level Pressure  
Sea Level Pressure 29.77 in    
Wind  
Wind Speed 8 mph (SW)    
Max Wind Speed 14 mph    
Max Gust Speed 21 mph    
Visibility 10 miles    
Events      
T = Trace of Precipitation, MM = Missing Value Source: NWS Daily Summary

Daily Weather History Graph

Daily Weather History Graph

Search for Another Location

Airport or City:

Trip Planner

Search our weather history database for the weather conditions in past years. The results will help you decide how hot, cold, wet, or windy it might be!

Date:

Astronomy

Feb. 27, 2013 Rise Set
Actual Time 6:50 AM EST 6:13 PM EST
Civil Twilight 6:24 AM EST 6:38 PM EST
Nautical Twilight 5:55 AM EST 7:07 PM EST
Astronomical Twilight 5:26 AM EST 7:37 PM EST
Moon 8:24 PM EST (2/27) 7:31 AM EST (2/27)
Length of Visible Light 12h 13m
Length of Day
11h 23m
Waning Gibbous, 96% of the Moon is Illuminated
Feb 27
Waning Gibbous
Mar 4
Last Quarter
Mar 11
New
Mar 19
First Quarter
Mar 27
Full

Hourly Weather History & Observations

Time (EST) Temp. Windchill Dew Point Humidity Pressure Visibility Wind Dir Wind Speed Gust Speed Precip Events Conditions
12:15 AM 48.2 °F - 48.2 °F 100% 29.69 in 5.0 mi SW 8.1 mph - N/A   Scattered Clouds
12:35 AM 48.2 °F - 48.2 °F 100% 29.70 in 5.0 mi WSW 11.5 mph - N/A   Mostly Cloudy
12:55 AM 48.2 °F - 48.2 °F 100% 29.71 in 7.0 mi WSW 9.2 mph - N/A   Overcast
1:15 AM 46.4 °F 42.4 °F 46.4 °F 100% 29.72 in 7.0 mi SW 8.1 mph - N/A   Scattered Clouds
1:35 AM 46.4 °F 42.9 °F 46.4 °F 100% 29.73 in 10.0 mi WSW 6.9 mph - N/A   Mostly Cloudy
1:55 AM 46.4 °F 44.3 °F 46.4 °F 100% 29.72 in 10.0 mi WSW 4.6 mph - N/A   Mostly Cloudy
2:15 AM 46.4 °F 43.5 °F 46.4 °F 100% 29.72 in 10.0 mi SW 5.8 mph - N/A   Scattered Clouds
2:35 AM 46.4 °F 43.5 °F 44.6 °F 93% 29.72 in 10.0 mi SSW 5.8 mph - N/A   Clear
2:55 AM 46.4 °F 43.5 °F 44.6 °F 93% 29.72 in 10.0 mi SSW 5.8 mph - N/A   Clear
3:15 AM 44.6 °F 39.7 °F 44.6 °F 100% 29.71 in 10.0 mi SSW 9.2 mph - N/A   Clear
3:35 AM 44.6 °F 39.7 °F 44.6 °F 100% 29.71 in 10.0 mi SSW 9.2 mph - N/A   Clear
3:55 AM 44.6 °F 39.7 °F 42.8 °F 93% 29.71 in 10.0 mi SSW 9.2 mph 16.1 mph N/A   Clear
4:15 AM 44.6 °F 38.4 °F 42.8 °F 93% 29.71 in 10.0 mi SW 12.7 mph - N/A   Clear
4:35 AM 44.6 °F 39.2 °F 41.0 °F 87% 29.72 in 10.0 mi SW 10.4 mph - N/A   Clear
4:55 AM 44.6 °F 39.2 °F 41.0 °F 87% 29.72 in 10.0 mi SW 10.4 mph - N/A   Clear
5:15 AM 44.6 °F 39.7 °F 39.2 °F 81% 29.73 in 10.0 mi SW 9.2 mph - N/A   Clear
5:35 AM 44.6 °F 39.2 °F 39.2 °F 81% 29.75 in 10.0 mi SW 10.4 mph - N/A   Clear
5:55 AM 44.6 °F 39.7 °F 39.2 °F 81% 29.75 in 10.0 mi WSW 9.2 mph 16.1 mph N/A   Clear
6:15 AM 44.6 °F 39.7 °F 37.4 °F 76% 29.76 in 10.0 mi WSW 9.2 mph - N/A   Clear
6:35 AM 44.6 °F 40.7 °F 37.4 °F 76% 29.77 in 10.0 mi WSW 6.9 mph - N/A   Clear
6:55 AM 44.6 °F 41.4 °F 37.4 °F 76% 29.77 in 10.0 mi WSW 5.8 mph - N/A   Clear
7:15 AM 44.6 °F 42.2 °F 37.4 °F 76% 29.78 in 10.0 mi WSW 4.6 mph - N/A   Clear
7:35 AM 44.6 °F 41.4 °F 37.4 °F 76% 29.79 in 10.0 mi WSW 5.8 mph - N/A   Clear
7:55 AM 44.6 °F 42.2 °F 39.2 °F 81% 29.80 in 10.0 mi SW 4.6 mph - N/A   Clear
8:15 AM 44.6 °F 41.4 °F 39.2 °F 81% 29.82 in 10.0 mi SSW 5.8 mph - N/A   Clear
8:35 AM 44.6 °F 41.4 °F 39.2 °F 81% 29.82 in 10.0 mi SW 5.8 mph - N/A   Clear
8:55 AM 46.4 °F 42.4 °F 41.0 °F 81% 29.83 in 10.0 mi SW 8.1 mph - N/A   Clear
9:15 AM 48.2 °F - 41.0 °F 76% 29.84 in 10.0 mi SW 11.5 mph 18.4 mph N/A   Clear
9:35 AM 50.0 °F - 39.2 °F 66% 29.85 in 10.0 mi SW 13.8 mph 17.3 mph N/A   Clear
9:55 AM 50.0 °F - 39.2 °F 66% 29.85 in 10.0 mi SW 10.4 mph - N/A   Clear
10:15 AM 51.8 °F - 39.2 °F 62% 29.85 in 10.0 mi West 12.7 mph 20.7 mph N/A   Clear
10:35 AM 51.8 °F - 39.2 °F 62% 29.84 in 10.0 mi West 11.5 mph 17.3 mph N/A   Clear
10:55 AM 51.8 °F - 39.2 °F 62% 29.83 in 10.0 mi West 5.8 mph - N/A   Clear
11:15 AM 53.6 °F - 39.2 °F 58% 29.83 in 10.0 mi West 8.1 mph - N/A   Clear
11:35 AM 53.6 °F - 41.0 °F 62% 29.84 in 10.0 mi WSW 8.1 mph - N/A   Clear
11:55 AM 53.6 °F - 39.2 °F 58% 29.82 in 10.0 mi SW 3.5 mph - N/A   Clear
12:15 PM 55.4 °F - 41.0 °F 58% 29.82 in 10.0 mi WSW 5.8 mph - N/A   Clear
12:35 PM 57.2 °F - 41.0 °F 55% 29.81 in 10.0 mi WNW 8.1 mph - N/A   Clear
12:55 PM 57.2 °F - 41.0 °F 55% 29.80 in 10.0 mi SW 5.8 mph - N/A   Clear
1:15 PM 59.0 °F - 41.0 °F 51% 29.79 in 10.0 mi WSW 3.5 mph - N/A   Clear
1:35 PM 59.0 °F - 39.2 °F 48% 29.79 in 10.0 mi West 4.6 mph 9.2 mph N/A   Clear
1:55 PM 59.0 °F - 41.0 °F 51% 29.79 in 10.0 mi SSW 10.4 mph - N/A   Clear
2:15 PM 60.8 °F - 41.0 °F 48% 29.78 in 10.0 mi SW 9.2 mph 16.1 mph N/A   Clear
2:35 PM 60.8 °F - 41.0 °F 48% 29.78 in 10.0 mi SW 13.8 mph 18.4 mph N/A   Clear
2:55 PM 60.8 °F - 41.0 °F 48% 29.77 in 10.0 mi SSW 12.7 mph 17.3 mph N/A   Clear
3:15 PM 60.8 °F - 41.0 °F 48% 29.77 in 10.0 mi WSW 10.4 mph 16.1 mph N/A   Clear
3:35 PM 60.8 °F - 41.0 °F 48% 29.76 in 10.0 mi SSW 5.8 mph 17.3 mph N/A   Clear
3:55 PM 60.8 °F - 41.0 °F 48% 29.76 in 10.0 mi SW 13.8 mph 18.4 mph N/A   Clear
4:15 PM 60.8 °F - 39.2 °F 45% 29.76 in 10.0 mi SW 9.2 mph - N/A   Clear
4:35 PM 60.8 °F - 39.2 °F 45% 29.75 in 10.0 mi SSW 10.4 mph - N/A   Clear
4:55 PM 60.8 °F - 39.2 °F 45% 29.75 in 10.0 mi SSW 10.4 mph - N/A   Clear
5:15 PM 60.8 °F - 41.0 °F 48% 29.76 in 10.0 mi SSW 9.2 mph - N/A   Clear
5:35 PM 60.8 °F - 41.0 °F 48% 29.76 in 10.0 mi SSW 10.4 mph - N/A   Clear
5:55 PM 59.0 °F - 41.0 °F 51% 29.76 in 10.0 mi SW 6.9 mph - N/A   Clear
6:15 PM 57.2 °F - 41.0 °F 55% 29.77 in 10.0 mi WSW 4.6 mph - N/A   Clear
6:35 PM 55.4 °F - 41.0 °F 58% 29.76 in 10.0 mi SW 4.6 mph - N/A   Clear
6:55 PM 53.6 °F - 41.0 °F 62% 29.77 in 10.0 mi Calm Calm - N/A   Clear
7:15 PM 51.8 °F - 41.0 °F 67% 29.77 in 10.0 mi WSW 3.5 mph - N/A   Clear
7:35 PM 51.8 °F - 42.8 °F 71% 29.77 in 10.0 mi SW 4.6 mph - N/A   Clear
7:55 PM 50.0 °F - 42.8 °F 76% 29.77 in 10.0 mi SSW 4.6 mph - N/A   Clear
8:15 PM 50.0 °F - 41.0 °F 71% 29.77 in 10.0 mi SSW 3.5 mph - N/A   Clear
8:35 PM 46.4 °F 44.3 °F 41.0 °F 81% 29.77 in 10.0 mi SW 4.6 mph - N/A   Clear
9:15 PM 50.0 °F - 41.0 °F 71% 29.77 in 10.0 mi SSW 4.6 mph - N/A   Clear
9:35 PM 48.2 °F - 41.0 °F 76% 29.77 in 10.0 mi Calm Calm - N/A   Clear
9:55 PM 46.4 °F - 41.0 °F 81% 29.77 in 10.0 mi Calm Calm - N/A   Clear
10:15 PM 46.4 °F 43.5 °F 41.0 °F 81% 29.77 in 10.0 mi SSW 5.8 mph - N/A   Clear
10:35 PM 46.4 °F 44.3 °F 41.0 °F 81% 29.77 in 10.0 mi South 4.6 mph - N/A   Clear
10:55 PM 46.4 °F 45.2 °F 41.0 °F 81% 29.77 in 10.0 mi SSW 3.5 mph - N/A   Clear
11:15 PM 46.4 °F 43.5 °F 41.0 °F 81% 29.76 in 10.0 mi SSW 5.8 mph - N/A   Clear
11:35 PM 44.6 °F 42.2 °F 41.0 °F 87% 29.76 in 10.0 mi SSW 4.6 mph - N/A   Clear
11:55 PM 46.4 °F 43.5 °F 39.2 °F 76% 29.76 in 10.0 mi SW 5.8 mph - N/A   Clear